Flight Track Log - Related Links

Times and Time Zones

All times are in EDT time to prevent confusion due to time zone crossing. See the TCF3494 flight status page for this flight to view local times or setup timezone preferences in your user account.

Time Position Orientation Groundspeed Altitude Reporting Facility
EDT Latitude Longitude Course Direction KTS MPH feet Rate Location/Type
Tue 08:17:36 PM 41.9167 -87.8667 134° Southeast 203 234 2,700  Level Chicago TRACON
Tue 08:17:58 PM 41.9006 -87.8439 134° Southeast 185 213 3,700 2,429 Climbing Chicago Center
Tue 08:19:00 PM 41.8511 -87.7728 133° Southeast 242 278 6,100 2,226 Climbing Chicago Center
Tue 08:20:02 PM 41.8072 -87.6831 123° Southeast 291 335 8,300 2,419 Climbing Chicago Center
Tue 08:21:04 PM 41.8306 -87.5736 74° East 304 350 11,100 2,516 Climbing Chicago Center
Tue 08:22:06 PM 41.8569 -87.4583 73° East 322 371 13,500 2,256 Climbing Chicago Center
Tue 08:23:09 PM 41.8842 -87.3364 73° East 339 390 15,800 2,496 Climbing Chicago Center
Tue 08:24:11 PM 41.9178 -87.1867 73° East 351 404 18,700 2,468 Climbing Chicago Center
Tue 08:25:13 PM 41.9453 -87.0556 74° East 364 419 20,900 1,935 Climbing Chicago Center
Tue 08:26:15 PM 41.9475 -86.9114 89° East 387 445 22,700 1,016 Climbing Chicago Center
Tue 08:27:17 PM 41.9483 -86.7536 90° East 425 489 23,000 968 Climbing Chicago Center
Tue 08:28:19 PM 41.9517 -86.5594 89° East 464 534 24,700 1,548 Climbing Chicago Center
Tue 08:29:21 PM 41.9536 -86.3839 89° East 468 539 26,200 1,403 Climbing Chicago Center
Tue 08:30:23 PM 41.9547 -86.2069 89° East 475 547 27,600 1,452 Climbing Chicago Center
Tue 08:31:25 PM 41.9378 -86.0292 97° East 479 551 29,200 1,452 Climbing Chicago Center
Tue 08:32:27 PM 41.9222 -85.8533 97° East 475 547 30,600 1,161 Climbing Chicago Center
Tue 08:33:29 PM 41.9053 -85.6761 97° East 477 549 31,600 1,065 Climbing Chicago Center
Tue 08:34:31 PM 41.8850 -85.4564 97° East 488 562 32,800 1,056 Climbing Chicago Center
Tue 08:35:34 PM 41.8675 -85.2733 97° East 490 564 33,800 816 Climbing Chicago Center
Tue 08:36:36 PM 41.8483 -85.0958 98° East 479 551 34,500 435 Climbing Chicago Center
Tue 08:37:38 PM 41.8297 -84.9128 98° East 489 563 34,700 -194 Climbing Chicago Center
Tue 08:38:40 PM 41.8089 -84.7197 98° East 518 596 34,100 -581 Descending Chicago Center
Tue 08:39:42 PM 41.7886 -84.5269 98° East 521 600 33,500 -621 Descending Chicago Center
Tue 08:40:07 PM 41.7825 -84.4403 95° East 508 585 33,200 -706 Descending Cleveland Center
Tue 08:41:07 PM 41.7747 -84.2308 93° East 514 592 32,500 -650 Descending Cleveland Center
Tue 08:42:07 PM 41.7739 -84.0553 90° East 514 592 31,900 -650 Descending Cleveland Center
Tue 08:43:07 PM 41.7714 -83.8631 91° East 521 600 31,200 -450 Descending Cleveland Center
Tue 08:44:07 PM 41.7703 -83.6681 90° East 516 594 31,000 -100 Descending Cleveland Center
Tue 08:45:07 PM 41.7611 -83.4700 93° East 521 600 31,000  Level Cleveland Center
Tue 08:46:07 PM 41.7428 -83.2769 97° East 521 600 31,000  Level Cleveland Center
Tue 08:47:07 PM 41.7222 -83.0786 98° East 521 600 31,000  Level Cleveland Center
Tue 08:48:07 PM 41.7033 -82.8833 97° East 521 600 31,000  Level Cleveland Center
Tue 08:49:07 PM 41.6822 -82.6878 98° East 521 600 31,000  Level Cleveland Center
Tue 08:50:07 PM 41.6628 -82.4897 97° East 526 605 31,000  Level Cleveland Center
Tue 08:51:07 PM 41.6428 -82.2947 98° East 526 605 31,000  Level Cleveland Center
Tue 08:52:07 PM 41.6225 -82.1025 98° East 526 605 31,000  Level Cleveland Center
Tue 08:53:07 PM 41.6022 -81.9050 98° East 526 605 31,000  Level Cleveland Center
Tue 08:54:07 PM 41.5792 -81.7100 99° East 526 605 31,000  Level Cleveland Center
Tue 08:55:07 PM 41.5561 -81.4961 98° East 531 611 31,000  Level Cleveland Center
Tue 08:56:07 PM 41.5325 -81.2961 99° East 536 617 31,000  Level Cleveland Center
Tue 08:57:07 PM 41.5106 -81.0989 98° East 543 625 31,000  Level Cleveland Center
Tue 08:58:07 PM 41.4925 -80.9019 97° East 543 625 31,000  Level Cleveland Center
Tue 08:59:07 PM 41.4764 -80.7050 96° East 543 625 31,000  Level Cleveland Center
Tue 09:00:07 PM 41.4575 -80.5056 97° East 543 625 31,000  Level Cleveland Center
Tue 09:01:07 PM 41.4406 -80.3089 96° East 537 618 31,000  Level Cleveland Center
Tue 09:02:07 PM 41.4211 -80.1153 98° East 537 618 31,000  Level Cleveland Center
Tue 09:03:07 PM 41.4014 -79.9214 98° East 537 618 31,000  Level Cleveland Center
Tue 09:04:07 PM 41.3836 -79.7281 97° East 532 612 31,000  Level Cleveland Center
Tue 09:05:07 PM 41.3631 -79.5264 98° East 538 619 31,000  Level Cleveland Center
Tue 09:06:07 PM 41.3444 -79.3303 97° East 538 619 31,000  Level Cleveland Center
Tue 09:07:07 PM 41.3233 -79.1400 98° East 538 619 31,000  Level Cleveland Center
Tue 09:08:07 PM 41.3019 -78.9414 98° East 538 619 31,000  Level Cleveland Center
Tue 09:09:07 PM 41.2847 -78.7650 97° East 538 619 31,000  Level Cleveland Center
Tue 09:10:07 PM 41.2628 -78.5722 99° East 538 619 31,000  Level Cleveland Center
Tue 09:11:28 PM 41.2317 -78.2839 98° East 532 612 31,000  Level New York Center
Tue 09:12:29 PM 41.2122 -78.1244 99° East 532 612 31,000  Level New York Center
Tue 09:13:31 PM 41.1856 -77.9147 100° East 532 612 31,000  Level New York Center
Tue 09:14:29 PM 41.1617 -77.7219 99° East 527 606 31,000  Level New York Center
Tue 09:15:31 PM 41.1347 -77.5014 99° East 540 621 31,000  Level New York Center
Tue 09:16:29 PM 41.1081 -77.3086 100° East 540 621 31,000 -500 Level New York Center
Tue 09:17:31 PM 41.0831 -77.1164 100° East 535 616 30,000 -1,664 Descending New York Center
Tue 09:18:28 PM 41.0556 -76.9239 101° East 529 609 27,700 -2,339 Descending New York Center
Tue 09:19:29 PM 41.0300 -76.7344 100° East 529 609 25,400 -2,000 Descending New York Center
Tue 09:20:31 PM 41.0017 -76.5889 104° East 529 609 23,600 -2,231 Descending New York Center
Tue 09:21:30 PM 40.9494 -76.3756 108° East 516 594 20,900 -2,390 Descending New York Center
Tue 09:22:29 PM 40.9169 -76.2247 106° East 489 563 18,900 -2,033 Descending New York Center
Tue 09:23:31 PM 40.8764 -76.0622 108° East 471 542 16,800 -2,200 Descending New York Center
Tue 09:24:29 PM 40.8361 -75.8917 107° East 451 519 14,500 -1,932 Descending New York Center
Tue 09:25:29 PM 40.7986 -75.7408 108° East 439 505 13,000 -700 Descending New York Center
Tue 09:26:29 PM 40.7631 -75.5958 108° East 427 491 13,100  Climbing New York Center
Tue 09:27:31 PM 40.7289 -75.4592 108° East 427 491 13,000 -49 Descending New York Center
Tue 09:28:31 PM 40.6992 -75.3122 105° East 427 491 13,000 -500 Level New York Center
Tue 09:29:31 PM 40.6617 -75.1508 107° East 421 484 12,000 -1,200 Descending New York Center
Tue 09:30:31 PM 40.5925 -75.0481 132° Southeast 413 475 10,600 -1,017 Descending New York Center
Tue 09:31:29 PM 40.5408 -74.9167 117° Southeast 413 475 10,000 -300 Descending New York Center
Tue 09:32:31 PM 40.4961 -74.7664 111° Southeast 399 459 10,000  Level New York Center
Tue 09:33:29 PM 40.4544 -74.6358 113° Southeast 399 459 10,000  Level New York Center
Tue 09:34:29 PM 40.4442 -74.5072 96° East 389 448 10,000 -205 Level New York Center
Tue 09:35:26 PM 40.4667 -74.3833 77° East 314 361 9,600 -718 Descending New York TRACON
Tue 09:36:26 PM 40.5000 -74.2833 66° East 297 342 8,600 -1,000 Descending New York TRACON
Tue 09:37:32 PM 40.5333 -74.1667 69° East 272 313 7,500 -1,000 Descending New York TRACON
Tue 09:38:32 PM 40.5500 -74.0833 75° East 252 290 6,500 -1,041 Descending New York TRACON
Tue 09:39:33 PM 40.5833 -74.0333 49° Northeast 210 242 5,400 -1,050 Descending New York TRACON
Tue 09:40:32 PM 40.6333 -74.0000 27° Northeast 192 221 4,400 -960 Descending New York TRACON
Tue 09:41:38 PM 40.6833 -73.9500 37° Northeast 162 186 3,400 -857 Descending New York TRACON
Tue 09:42:38 PM 40.7167 -73.9167 37° Northeast 169 194 2,600 -835 Descending New York TRACON
Tue 09:43:33 PM 40.7333 -73.8667 66° East 179 206 1,800 -873 Descending New York TRACON

Login

Don't have an account? Register now (free) for customized features, flight alerts, and more!